createdAt,value
2023-10-09T00:02:12.150Z,11.70
2023-10-09T00:04:48.215Z,11.70
2023-10-09T00:07:17.749Z,11.70
2023-10-09T00:09:47.462Z,11.70
2023-10-09T00:12:28.653Z,11.70
2023-10-09T00:15:08.968Z,11.60
2023-10-09T00:17:36.077Z,11.50
2023-10-09T00:20:18.750Z,11.40
2023-10-09T00:22:47.489Z,11.30
2023-10-09T00:25:24.015Z,11.30
2023-10-09T00:27:51.016Z,11.30
2023-10-09T00:30:31.066Z,11.20
2023-10-09T00:33:02.242Z,11.10
2023-10-09T00:35:44.961Z,11.00
2023-10-09T00:38:23.670Z,11.00
2023-10-09T00:41:04.804Z,11.00
2023-10-09T00:43:31.899Z,10.90
2023-10-09T00:46:13.258Z,10.80
2023-10-09T00:48:41.332Z,10.80
2023-10-09T00:51:17.461Z,10.70
2023-10-09T00:53:54.723Z,10.60
2023-10-09T00:56:26.504Z,10.50
2023-10-09T00:59:01.287Z,10.50
2023-10-09T01:01:57.842Z,10.40
2023-10-09T01:04:29.716Z,10.40
2023-10-09T01:07:13.904Z,10.40
2023-10-09T01:09:44.616Z,10.30
2023-10-09T01:12:19.128Z,10.20
2023-10-09T01:14:53.731Z,10.20
2023-10-09T01:17:35.033Z,10.10
2023-10-09T01:20:06.070Z,10.10
2023-10-09T01:22:33.009Z,10.10
2023-10-09T01:24:59.855Z,10.00
2023-10-09T01:27:33.707Z,10.00
2023-10-09T01:30:01.582Z,9.90
2023-10-09T01:32:28.667Z,10.00
2023-10-09T01:34:55.526Z,10.00
2023-10-09T01:37:29.861Z,10.00
2023-10-09T01:40:17.243Z,10.10
2023-10-09T01:42:47.047Z,10.10
2023-10-09T01:45:20.734Z,10.20
2023-10-09T01:47:52.992Z,10.20
2023-10-09T01:50:32.299Z,10.10
2023-10-09T01:53:03.043Z,10.20
2023-10-09T01:55:39.866Z,10.20
2023-10-09T01:58:18.038Z,10.20
2023-10-09T02:00:50.103Z,10.20
2023-10-09T02:03:17.359Z,10.20
2023-10-09T02:05:44.561Z,10.30
2023-10-09T02:08:12.561Z,10.30
2023-10-09T02:10:48.932Z,10.30
2023-10-09T02:13:18.187Z,10.30
2023-10-09T02:15:45.483Z,10.40
2023-10-09T02:18:23.464Z,10.40
2023-10-09T02:21:13.543Z,10.50
2023-10-09T02:23:47.320Z,10.40
2023-10-09T02:26:20.825Z,10.40
2023-10-09T02:29:00.005Z,10.30
2023-10-09T02:31:37.690Z,10.30
2023-10-09T02:34:06.421Z,10.30
2023-10-09T02:36:36.528Z,10.20
2023-10-09T02:39:06.870Z,10.10
2023-10-09T02:41:35.633Z,10.10
2023-10-09T02:44:12.874Z,10.10
2023-10-09T02:46:41.393Z,10.10
2023-10-09T02:49:10.662Z,10.00
2023-10-09T02:51:53.949Z,10.10
2023-10-09T02:54:23.463Z,9.90
2023-10-09T02:56:56.107Z,9.80
2023-10-09T02:59:24.069Z,9.80
2023-10-09T03:01:55.051Z,9.80
2023-10-09T03:04:25.032Z,9.70
2023-10-09T03:06:52.553Z,9.70
2023-10-09T03:09:28.469Z,9.70
2023-10-09T03:12:04.368Z,9.60
2023-10-09T03:14:39.331Z,9.60
2023-10-09T03:17:12.507Z,9.60
2023-10-09T03:19:40.404Z,9.60
2023-10-09T03:22:12.582Z,9.50
2023-10-09T03:24:48.733Z,9.50
2023-10-09T03:27:17.778Z,9.50
2023-10-09T03:29:50.821Z,9.50
2023-10-09T03:32:17.763Z,9.50
2023-10-09T03:34:44.957Z,9.50
2023-10-09T03:37:35.101Z,9.50
2023-10-09T03:40:05.397Z,9.50
2023-10-09T03:42:34.650Z,9.50
2023-10-09T03:45:01.659Z,9.50
2023-10-09T03:47:28.988Z,9.60
2023-10-09T03:49:57.144Z,9.50
2023-10-09T03:52:27.382Z,9.50
2023-10-09T03:54:55.855Z,9.50
2023-10-09T03:57:24.740Z,9.50
2023-10-09T03:59:53.022Z,9.40
2023-10-09T04:02:23.123Z,9.50
2023-10-09T04:04:51.965Z,9.60
2023-10-09T04:07:19.730Z,9.60
2023-10-09T04:09:54.883Z,9.70
2023-10-09T04:12:22.264Z,9.70
2023-10-09T04:14:56.295Z,9.70
2023-10-09T04:17:23.647Z,9.80
2023-10-09T04:20:10.999Z,9.80
2023-10-09T04:23:00.613Z,9.80
2023-10-09T04:25:28.453Z,9.80
2023-10-09T04:28:10.607Z,9.90
2023-10-09T04:30:44.136Z,9.90
2023-10-09T04:33:29.808Z,9.90
2023-10-09T04:36:23.929Z,9.90
2023-10-09T04:39:17.143Z,9.90
2023-10-09T04:41:44.297Z,9.90
2023-10-09T04:44:20.304Z,9.90
2023-10-09T04:47:06.894Z,9.80
2023-10-09T04:49:49.995Z,9.90
2023-10-09T04:52:41.012Z,9.80
2023-10-09T04:55:09.352Z,9.90
2023-10-09T04:57:45.425Z,9.80
2023-10-09T05:00:29.434Z,9.70
2023-10-09T05:03:12.259Z,9.80
2023-10-09T05:05:44.432Z,9.80
2023-10-09T05:08:22.526Z,9.80
2023-10-09T05:11:00.425Z,9.90
2023-10-09T05:13:41.665Z,9.90
2023-10-09T05:16:20.192Z,10.00
2023-10-09T05:19:00.556Z,10.00
2023-10-09T05:21:34.724Z,10.10
2023-10-09T05:24:16.293Z,10.20
2023-10-09T05:26:48.829Z,10.10
2023-10-09T05:29:35.522Z,10.20
2023-10-09T05:32:05.889Z,10.30
2023-10-09T05:34:55.434Z,10.30
2023-10-09T05:37:33.809Z,10.30
2023-10-09T05:40:17.032Z,10.30
2023-10-09T05:42:45.491Z,10.30
2023-10-09T05:45:32.984Z,10.30
2023-10-09T05:48:02.529Z,10.30
2023-10-09T05:50:30.609Z,10.40
2023-10-09T05:53:06.981Z,10.40
2023-10-09T05:56:03.221Z,10.40
2023-10-09T05:58:48.977Z,10.40
2023-10-09T06:01:50.875Z,10.50
2023-10-09T06:04:20.074Z,10.50
2023-10-09T06:06:47.653Z,10.50
2023-10-09T06:09:16.709Z,10.50
2023-10-09T06:11:55.610Z,10.60
2023-10-09T06:14:30.679Z,10.60
2023-10-09T06:17:02.578Z,10.60
2023-10-09T06:19:29.925Z,10.70
2023-10-09T06:22:05.242Z,10.70
2023-10-09T06:24:42.902Z,10.70
2023-10-09T06:27:12.342Z,10.80
2023-10-09T06:29:46.598Z,10.80
2023-10-09T06:32:19.905Z,10.90
2023-10-09T06:35:30.823Z,10.90
2023-10-09T06:38:02.290Z,11.00
2023-10-09T06:40:53.383Z,11.00
2023-10-09T06:43:25.063Z,11.10
2023-10-09T06:46:17.529Z,11.20
2023-10-09T06:48:57.064Z,11.20
2023-10-09T06:51:28.245Z,11.30
2023-10-09T06:54:19.114Z,11.30
2023-10-09T06:56:54.802Z,11.50
2023-10-09T06:59:25.480Z,11.40
2023-10-09T07:02:11.799Z,11.50
2023-10-09T07:04:39.532Z,11.50
2023-10-09T07:07:14.142Z,11.60
2023-10-09T07:09:44.732Z,11.70
2023-10-09T07:12:21.934Z,11.80
2023-10-09T07:14:48.990Z,11.90
2023-10-09T07:17:44.465Z,12.00
2023-10-09T07:20:35.527Z,12.10
2023-10-09T07:23:14.997Z,12.20
2023-10-09T07:25:56.054Z,12.30
2023-10-09T07:28:38.356Z,12.40
2023-10-09T07:31:10.158Z,12.50
2023-10-09T07:33:57.990Z,12.60
2023-10-09T07:36:36.171Z,12.70
2023-10-09T07:39:15.257Z,12.80
2023-10-09T07:41:56.615Z,12.90
2023-10-09T07:44:37.699Z,13.00
2023-10-09T07:47:19.304Z,13.10
2023-10-09T07:49:52.570Z,13.10
2023-10-09T07:52:22.727Z,13.20
2023-10-09T07:55:03.791Z,13.30
2023-10-09T08:35:37.332Z,14.40
2023-10-09T08:38:09.400Z,14.60
2023-10-09T08:40:40.985Z,14.80
2023-10-09T08:43:22.076Z,14.90
2023-10-09T08:46:02.657Z,15.10
2023-10-09T08:48:30.413Z,15.30
2023-10-09T08:50:58.168Z,15.40
2023-10-09T08:53:29.445Z,15.50
2023-10-09T08:55:56.940Z,15.50
2023-10-09T08:58:32.381Z,15.60
2023-10-09T09:01:02.106Z,15.70
2023-10-09T09:03:45.376Z,15.70
2023-10-09T09:06:15.815Z,15.90
2023-10-09T09:08:46.955Z,15.80
2023-10-09T09:11:31.521Z,15.80
2023-10-09T09:14:10.689Z,15.80
2023-10-09T09:16:49.642Z,15.80
2023-10-09T09:19:20.267Z,15.90
2023-10-09T09:22:02.773Z,15.90
2023-10-09T09:24:32.798Z,16.00
2023-10-09T09:27:13.964Z,16.10
2023-10-09T09:29:43.264Z,16.20
2023-10-09T09:32:22.015Z,16.40
2023-10-09T09:34:55.573Z,16.50
2023-10-09T09:37:33.266Z,16.50
2023-10-09T09:40:02.774Z,16.60
2023-10-09T09:42:33.722Z,16.60
2023-10-09T09:45:03.365Z,16.60
2023-10-09T09:47:31.900Z,16.70
2023-10-09T09:50:02.380Z,16.70
2023-10-09T09:52:40.458Z,16.70
2023-10-09T09:55:18.207Z,16.80
2023-10-09T09:57:53.545Z,16.80
2023-10-09T10:00:43.801Z,16.90
2023-10-09T10:03:22.092Z,17.00
2023-10-09T10:05:52.636Z,17.10
2023-10-09T10:08:24.048Z,17.20
2023-10-09T10:10:53.773Z,17.20
2023-10-09T10:13:42.762Z,17.30
2023-10-09T10:16:15.289Z,17.40
2023-10-09T10:19:23.515Z,17.50
2023-10-09T10:21:51.093Z,17.50
2023-10-09T10:24:30.764Z,17.60
2023-10-09T10:27:30.305Z,17.80
2023-10-09T10:30:12.920Z,17.90
2023-10-09T10:33:14.059Z,18.10
2023-10-09T10:35:46.827Z,18.20
2023-10-09T10:38:38.311Z,18.30
2023-10-09T10:41:18.180Z,18.40
2023-10-09T10:43:54.335Z,18.40
2023-10-09T10:46:39.558Z,18.50
2023-10-09T10:49:22.709Z,18.50
2023-10-09T10:51:55.471Z,18.50
2023-10-09T10:54:35.707Z,18.50
2023-10-09T10:57:04.923Z,18.50
2023-10-09T10:59:40.547Z,18.50
2023-10-09T11:02:13.945Z,18.60
2023-10-09T11:04:45.511Z,18.70
2023-10-09T11:07:26.481Z,18.90
2023-10-09T11:10:07.385Z,18.90
2023-10-09T11:12:46.089Z,18.80
2023-10-09T11:15:23.416Z,19.00
2023-10-09T11:18:18.671Z,18.90
2023-10-09T11:21:17.026Z,19.00
2023-10-09T11:23:54.085Z,19.00
2023-10-09T11:26:29.277Z,19.00
2023-10-09T11:29:18.024Z,19.00
2023-10-09T11:32:15.689Z,19.10
2023-10-09T11:34:46.397Z,19.10
2023-10-09T11:37:17.917Z,19.10
2023-10-09T11:39:57.906Z,19.10
2023-10-09T11:42:39.627Z,19.10
2023-10-09T11:45:21.849Z,19.10
2023-10-09T11:48:01.470Z,19.10
2023-10-09T11:50:56.552Z,19.10
2023-10-09T11:53:23.587Z,19.10
2023-10-09T11:55:54.280Z,19.20
2023-10-09T11:58:25.669Z,19.20
2023-10-09T12:01:06.619Z,19.30
2023-10-09T12:03:41.423Z,19.40
2023-10-09T12:06:13.371Z,19.50
2023-10-09T12:08:43.583Z,19.50
2023-10-09T12:11:13.656Z,19.50
2023-10-09T12:13:45.624Z,19.50
2023-10-09T12:16:12.604Z,19.50
2023-10-09T12:18:41.339Z,19.50
2023-10-09T12:21:08.828Z,19.50
2023-10-09T12:23:36.902Z,19.50
2023-10-09T12:26:06.589Z,19.50
2023-10-09T12:28:34.463Z,19.50
2023-10-09T12:31:02.766Z,19.50
2023-10-09T12:33:32.044Z,19.50
2023-10-09T12:36:02.919Z,19.60
2023-10-09T12:38:34.145Z,19.60
2023-10-09T12:41:20.868Z,19.60
2023-10-09T12:43:49.089Z,19.60
2023-10-09T12:46:19.535Z,19.50
2023-10-09T12:48:49.901Z,19.50
2023-10-09T12:51:18.094Z,19.50
2023-10-09T12:53:50.020Z,19.50
2023-10-09T12:56:19.445Z,19.50
2023-10-09T12:58:54.176Z,19.50
2023-10-09T13:01:22.192Z,19.60
2023-10-09T13:03:51.226Z,19.50
2023-10-09T13:06:25.223Z,19.50
2023-10-09T13:08:53.075Z,19.60
2023-10-09T13:11:20.319Z,19.60
2023-10-09T13:13:56.257Z,19.60
2023-10-09T13:16:27.067Z,19.60
2023-10-09T13:18:55.874Z,19.60
2023-10-09T13:21:27.779Z,19.60
2023-10-09T13:23:58.772Z,19.60
2023-10-09T13:26:34.384Z,19.70
2023-10-09T13:29:04.579Z,19.70
2023-10-09T13:31:36.345Z,19.70
2023-10-09T13:34:05.022Z,19.60
2023-10-09T13:36:39.500Z,19.60
2023-10-09T13:39:27.993Z,19.60
2023-10-09T13:42:01.623Z,19.60
2023-10-09T13:44:54.316Z,19.60
2023-10-09T13:47:22.233Z,19.60
2023-10-09T13:49:51.939Z,19.50
2023-10-09T13:52:19.772Z,19.50
2023-10-09T13:54:49.589Z,19.50
2023-10-09T13:57:16.972Z,19.50
2023-10-09T13:59:50.304Z,19.50
2023-10-09T14:02:19.921Z,19.50
2023-10-09T14:04:50.049Z,19.50
2023-10-09T14:07:18.034Z,19.50
2023-10-09T14:09:45.828Z,19.50
2023-10-09T14:12:15.256Z,19.40
2023-10-09T14:14:54.935Z,19.30
2023-10-09T14:17:29.236Z,19.30
2023-10-09T14:20:21.484Z,19.20
2023-10-09T14:22:54.352Z,19.20
2023-10-09T14:25:22.782Z,19.10
2023-10-09T14:27:49.954Z,19.10
2023-10-09T14:30:25.105Z,19.20
2023-10-09T14:32:57.581Z,19.20
2023-10-09T14:35:31.752Z,19.20
2023-10-09T14:37:58.797Z,19.20
2023-10-09T14:40:35.042Z,19.30
2023-10-09T14:43:02.262Z,19.20
2023-10-09T14:45:29.318Z,19.20
2023-10-09T14:47:56.534Z,19.20
2023-10-09T14:50:24.046Z,19.20
2023-10-09T14:52:52.363Z,19.10
2023-10-09T14:55:22.213Z,19.20
2023-10-09T14:57:53.832Z,19.10
2023-10-09T15:00:25.098Z,19.00
2023-10-09T15:02:54.017Z,18.90
2023-10-09T15:05:24.326Z,18.90
2023-10-09T15:07:54.058Z,18.90
2023-10-09T15:10:21.377Z,18.80
2023-10-09T15:12:51.030Z,18.80
2023-10-09T15:15:18.584Z,18.80
2023-10-09T15:17:50.147Z,18.70
2023-10-09T15:20:18.000Z,18.70
2023-10-09T15:22:47.366Z,18.70
2023-10-09T15:25:16.083Z,18.60
2023-10-09T15:27:44.543Z,18.50
2023-10-09T15:30:15.675Z,18.50
2023-10-09T15:32:44.156Z,18.40
2023-10-09T15:35:14.596Z,18.40
2023-10-09T15:37:44.288Z,18.40
2023-10-09T15:40:19.725Z,18.30
2023-10-09T15:42:51.249Z,18.30
2023-10-09T15:45:23.061Z,18.30
2023-10-09T15:47:53.033Z,18.30
2023-10-09T15:50:24.088Z,18.20
2023-10-09T15:52:54.653Z,18.20
2023-10-09T15:55:25.625Z,18.20
2023-10-09T15:57:56.166Z,18.10
2023-10-09T16:00:36.554Z,18.10
2023-10-09T16:03:04.955Z,18.00
2023-10-09T16:05:36.810Z,18.00
2023-10-09T16:08:07.269Z,17.90
2023-10-09T16:10:35.852Z,17.90
2023-10-09T16:13:02.908Z,17.90
2023-10-09T16:15:29.936Z,17.80
2023-10-09T16:18:00.269Z,17.80
2023-10-09T16:20:27.992Z,17.70
2023-10-09T16:22:57.588Z,17.70
2023-10-09T16:25:25.453Z,17.70
2023-10-09T16:27:53.820Z,17.60
2023-10-09T16:30:22.370Z,17.50
2023-10-09T16:32:51.740Z,17.40
2023-10-09T16:35:23.889Z,17.30
2023-10-09T16:37:52.295Z,17.20
2023-10-09T16:40:23.639Z,17.10
2023-10-09T16:42:51.273Z,17.00
2023-10-09T16:45:18.781Z,16.90
2023-10-09T16:48:00.519Z,16.80
2023-10-09T16:50:29.552Z,16.80
2023-10-09T16:52:56.900Z,16.70
2023-10-09T16:55:25.870Z,16.50
2023-10-09T16:57:53.100Z,16.50
2023-10-09T17:00:30.196Z,16.40
2023-10-09T17:03:00.754Z,16.30
2023-10-09T17:05:29.409Z,16.30
2023-10-09T17:07:57.194Z,16.10
2023-10-09T17:10:33.158Z,16.10
2023-10-09T17:13:02.056Z,16.00
2023-10-09T17:15:34.044Z,16.00
2023-10-09T17:18:02.732Z,16.00
2023-10-09T17:20:29.747Z,15.90
2023-10-09T17:23:03.112Z,15.90
2023-10-09T17:25:33.593Z,15.90
2023-10-09T17:28:00.992Z,15.80
2023-10-09T17:30:28.713Z,15.70
2023-10-09T17:32:55.955Z,15.60
2023-10-09T17:35:22.905Z,15.60
2023-10-09T17:37:50.212Z,15.60
2023-10-09T17:40:20.397Z,15.60
2023-10-09T17:42:47.367Z,15.60
2023-10-09T17:45:23.311Z,15.60
2023-10-09T17:47:53.396Z,15.70
2023-10-09T17:50:23.189Z,15.70
2023-10-09T17:52:50.408Z,15.70
2023-10-09T17:55:19.775Z,15.70
2023-10-09T17:57:46.791Z,15.70
2023-10-09T18:00:23.767Z,15.60
2023-10-09T18:02:53.928Z,15.60
2023-10-09T18:05:21.766Z,15.50
2023-10-09T18:07:50.889Z,15.40
2023-10-09T18:10:18.878Z,15.40
2023-10-09T18:12:46.427Z,15.40
2023-10-09T18:15:14.857Z,15.40
2023-10-09T18:17:44.208Z,15.40
2023-10-09T18:20:12.504Z,15.50
2023-10-09T18:22:39.560Z,15.50
2023-10-09T18:25:07.390Z,15.50
2023-10-09T18:27:34.691Z,15.60
2023-10-09T18:30:01.743Z,15.60
2023-10-09T18:32:29.085Z,15.60
2023-10-09T18:34:56.462Z,15.60
2023-10-09T18:37:24.872Z,15.60
2023-10-09T18:39:52.960Z,15.60
2023-10-09T18:42:20.537Z,15.60
2023-10-09T18:44:47.550Z,15.60
2023-10-09T18:47:20.345Z,15.60
2023-10-09T18:49:51.647Z,15.50
2023-10-09T18:52:20.619Z,15.50
2023-10-09T18:54:48.028Z,15.50
2023-10-09T18:57:16.298Z,15.50
2023-10-09T18:59:44.306Z,15.50
2023-10-09T19:02:12.834Z,15.60
2023-10-09T19:04:40.409Z,15.60
2023-10-09T19:07:07.578Z,15.70
2023-10-09T19:09:34.744Z,15.70
2023-10-09T19:12:01.893Z,15.80
2023-10-09T19:14:30.264Z,15.80
2023-10-09T19:17:01.393Z,15.80
2023-10-09T19:19:29.092Z,15.80
2023-10-09T19:21:56.172Z,15.70
2023-10-09T19:24:23.200Z,15.70
2023-10-09T19:26:50.997Z,15.70
2023-10-09T19:29:18.404Z,15.70
2023-10-09T19:31:46.084Z,15.60
2023-10-09T19:34:15.090Z,15.60
2023-10-09T19:36:47.708Z,15.60
2023-10-09T19:39:18.254Z,15.60
2023-10-09T19:41:45.420Z,15.50
2023-10-09T19:44:13.008Z,15.40
2023-10-09T19:46:40.585Z,15.30
2023-10-09T19:49:10.053Z,15.30
2023-10-09T19:51:37.247Z,15.20
2023-10-09T19:54:04.964Z,15.20
2023-10-09T19:56:33.153Z,15.10
2023-10-09T19:59:00.401Z,15.10
2023-10-09T20:01:29.017Z,15.10
2023-10-09T20:03:56.407Z,15.00
2023-10-09T20:06:24.233Z,15.00
2023-10-09T20:08:51.159Z,14.90
2023-10-09T20:11:18.374Z,14.90
2023-10-09T20:13:45.809Z,14.80
2023-10-09T20:16:13.533Z,14.80
2023-10-09T20:18:44.402Z,14.70
2023-10-09T20:21:15.187Z,14.70
2023-10-09T20:23:43.046Z,14.60
2023-10-09T20:26:16.628Z,14.60
2023-10-09T20:28:46.728Z,14.60
2023-10-09T20:31:14.308Z,14.60
2023-10-09T20:33:43.874Z,14.50
2023-10-09T20:36:28.990Z,14.50
2023-10-09T20:38:56.429Z,14.50
2023-10-09T20:41:27.151Z,14.50
2023-10-09T20:43:54.329Z,14.50
2023-10-09T20:46:21.377Z,14.50
2023-10-09T20:48:48.370Z,14.50
2023-10-09T20:51:16.821Z,14.50
2023-10-09T20:53:45.746Z,14.50
2023-10-09T20:56:13.234Z,14.60
2023-10-09T20:58:44.370Z,14.60
2023-10-09T21:01:17.874Z,14.60
2023-10-09T21:03:48.143Z,14.50
2023-10-09T21:06:15.523Z,14.50
2023-10-09T21:08:44.926Z,14.50
2023-10-09T21:11:11.984Z,14.50
2023-10-09T21:13:40.009Z,14.50
2023-10-09T21:16:13.723Z,14.60
2023-10-09T21:18:45.280Z,14.50
2023-10-09T21:21:14.745Z,14.40
2023-10-09T21:23:43.836Z,14.50
2023-10-09T21:26:21.288Z,14.40
2023-10-09T21:28:49.932Z,14.40
2023-10-09T21:31:19.629Z,14.40
2023-10-09T21:33:51.505Z,14.40
2023-10-09T21:36:20.190Z,14.40
2023-10-09T21:38:47.541Z,14.30
2023-10-09T21:41:23.164Z,14.30
2023-10-09T21:43:55.125Z,14.30
2023-10-09T21:46:26.742Z,14.30
2023-10-09T21:48:54.688Z,14.20
2023-10-09T21:51:21.666Z,14.20
2023-10-09T21:53:49.483Z,14.10
2023-10-09T21:56:17.192Z,14.10
2023-10-09T21:58:45.129Z,14.10
2023-10-09T22:01:13.823Z,14.10
2023-10-09T22:03:46.366Z,14.00
2023-10-09T22:06:13.519Z,14.00
2023-10-09T22:08:40.800Z,13.90
2023-10-09T22:11:09.151Z,13.90
2023-10-09T22:13:37.101Z,13.90
2023-10-09T22:16:06.705Z,13.90
2023-10-09T22:18:40.902Z,13.80
2023-10-09T22:21:12.529Z,13.80
2023-10-09T22:23:47.340Z,13.80
2023-10-09T22:26:17.862Z,13.80
2023-10-09T22:28:48.296Z,13.80
2023-10-09T22:31:35.628Z,13.80
2023-10-09T22:34:11.940Z,13.80
2023-10-09T22:36:54.209Z,13.90
2023-10-09T22:39:22.691Z,13.90
2023-10-09T22:41:50.959Z,14.00
2023-10-09T22:44:23.242Z,14.00
2023-10-09T22:46:53.433Z,14.00
2023-10-09T22:49:20.681Z,14.00
2023-10-09T22:51:52.383Z,14.00
2023-10-09T22:54:35.482Z,14.10
2023-10-09T22:57:04.784Z,14.10
2023-10-09T22:59:33.465Z,14.10
2023-10-09T23:02:00.780Z,14.20
2023-10-09T23:04:40.660Z,14.20
2023-10-09T23:07:17.217Z,14.30
2023-10-09T23:09:52.804Z,14.30
2023-10-09T23:12:36.535Z,14.30
2023-10-09T23:15:11.247Z,14.30
2023-10-09T23:17:49.575Z,14.30
2023-10-09T23:20:18.394Z,14.30
2023-10-09T23:22:48.704Z,14.30
2023-10-09T23:25:31.299Z,14.30
2023-10-09T23:28:15.318Z,14.30
2023-10-09T23:30:45.884Z,14.30
2023-10-09T23:33:22.589Z,14.30
2023-10-09T23:35:57.015Z,14.30
2023-10-09T23:38:36.076Z,14.30
2023-10-09T23:41:11.050Z,14.30
2023-10-09T23:43:54.492Z,14.30
2023-10-09T23:46:25.019Z,14.30
2023-10-09T23:48:55.497Z,14.30
2023-10-09T23:51:23.475Z,14.40
2023-10-09T23:54:02.302Z,14.30
2023-10-09T23:56:56.573Z,14.40
2023-10-09T23:59:39.884Z,14.50
